Time;durP1;ratioP1;P1;durP2;ratioP2;P2;SDS_P1;SDS_P2;PMS_P1;PMS_P2;Temp;Humidity;BMP_temperature;BMP_pressure;BME280_temperature;BME280_humidity;BME280_pressure;Samples;Min_cycle;Max_cycle;Signal;HPM_P1;HPM_P2
2022/06/01 00:01:25;;;;;;;7.95;5.60;;;;;;;;;;5037662;28;20025;-77
2022/06/01 00:03:51;;;;;;;8.30;6.00;;;;;;;;;;5041131;28;20446;-77
2022/06/01 00:06:17;;;;;;;9.38;6.82;;;;;;;;;;5037638;28;20021;-77
2022/06/01 00:08:43;;;;;;;7.30;5.93;;;;;;;;;;5040362;28;20021;-77
2022/06/01 00:11:10;;;;;;;7.80;5.75;;;;;;;;;;5035465;28;20498;-77
2022/06/01 00:13:36;;;;;;;8.23;6.20;;;;;;;;;;5034152;28;20056;-77
2022/06/01 00:16:02;;;;;;;8.15;6.50;;;;;;;;;;5032200;28;20036;-77
2022/06/01 00:18:28;;;;;;;8.77;6.78;;;;;;;;;;5033788;28;20036;-77
2022/06/01 00:20:54;;;;;;;9.23;7.10;;;;;;;;;;5034146;28;20029;-78
2022/06/01 00:23:21;;;;;;;10.55;7.35;;;;;;;;;;5034061;28;20100;-78
2022/06/01 00:25:47;;;;;;;8.75;7.03;;;;;;;;;;5032847;28;20037;-78
2022/06/01 00:28:13;;;;;;;9.50;6.15;;;;;;;;;;5033851;28;20586;-78
2022/06/01 00:30:39;;;;;;;10.35;7.10;;;;;;;;;;5034013;28;20498;-79
2022/06/01 00:33:05;;;;;;;9.77;7.32;;;;;;;;;;5034254;28;20518;-79
2022/06/01 00:35:32;;;;;;;8.00;7.00;;;;;;;;;;5033526;28;20069;-77
2022/06/01 00:37:58;;;;;;;9.60;6.43;;;;;;;;;;5033731;28;20494;-78
2022/06/01 00:40:26;;;;;;;7.78;6.72;;;;;;;;;;5032465;28;20029;-78
2022/06/01 00:42:54;;;;;;;8.07;6.65;;;;;;;;;;5032374;28;20142;-77
2022/06/01 00:45:22;;;;;;;8.07;6.60;;;;;;;;;;5032083;28;20021;-78
2022/06/01 00:47:49;;;;;;;8.55;6.47;;;;;;;;;;5033502;28;20028;-78
2022/06/01 00:50:18;;;;;;;8.32;6.32;;;;;;;;;;5033717;28;20108;-77
2022/06/01 00:52:52;;;;;;;8.52;5.82;;;;;;;;;;5031871;28;20144;-78
2022/06/01 00:55:26;;;;;;;7.72;6.35;;;;;;;;;;5034907;28;20037;-78
2022/06/01 00:57:55;;;;;;;8.27;6.28;;;;;;;;;;5034896;28;20087;-78
2022/06/01 01:00:25;;;;;;;8.90;6.68;;;;;;;;;;5033322;28;20035;-78
2022/06/01 01:02:53;;;;;;;8.75;6.05;;;;;;;;;;5032958;28;20030;-78
2022/06/01 01:05:19;;;;;;;7.60;6.40;;;;;;;;;;5033584;28;20033;-78
2022/06/01 01:07:46;;;;;;;8.13;6.75;;;;;;;;;;5033810;28;20033;-77
2022/06/01 01:10:13;;;;;;;7.15;5.75;;;;;;;;;;5032961;28;20107;-78
2022/06/01 01:15:27;;;;;;;7.72;6.00;;;;;;;;;;5034850;28;20068;-78
2022/06/01 01:17:54;;;;;;;8.57;5.88;;;;;;;;;;5042341;28;20099;-78
2022/06/01 01:20:20;;;;;;;7.90;5.65;;;;;;;;;;5053784;28;20040;-78
2022/06/01 01:22:46;;;;;;;8.52;5.05;;;;;;;;;;5040938;28;20072;-77
2022/06/01 01:25:18;;;;;;;6.63;5.28;;;;;;;;;;5032663;28;20061;-78
2022/06/01 01:27:45;;;;;;;8.15;5.55;;;;;;;;;;5032425;28;20034;-78
2022/06/01 01:30:29;;;;;;;7.18;5.35;;;;;;;;;;5047558;28;20025;-78
2022/06/01 01:32:56;;;;;;;7.05;5.47;;;;;;;;;;5032786;28;20025;-76
2022/06/01 01:35:22;;;;;;;7.13;5.15;;;;;;;;;;5032718;28;20029;-78
2022/06/01 01:37:49;;;;;;;6.65;5.25;;;;;;;;;;5030602;28;20113;-77
2022/06/01 01:40:15;;;;;;;8.20;5.72;;;;;;;;;;5032241;28;20017;-78
2022/06/01 01:42:41;;;;;;;7.90;5.72;;;;;;;;;;5024899;28;20072;-76
2022/06/01 01:45:25;;;;;;;8.13;5.78;;;;;;;;;;5011275;28;20065;-77
2022/06/01 01:47:51;;;;;;;7.78;5.60;;;;;;;;;;5025134;28;20026;-76
2022/06/01 01:50:18;;;;;;;7.57;5.60;;;;;;;;;;5032510;28;20072;-77
2022/06/01 01:52:44;;;;;;;8.35;5.68;;;;;;;;;;5032689;28;20029;-77
2022/06/01 01:55:20;;;;;;;7.68;5.63;;;;;;;;;;5031564;28;20132;-78
2022/06/01 01:57:49;;;;;;;7.43;6.05;;;;;;;;;;5013598;28;20030;-78
2022/06/01 02:00:18;;;;;;;7.75;5.80;;;;;;;;;;5015022;28;20026;-77
2022/06/01 02:02:50;;;;;;;8.02;6.22;;;;;;;;;;5014424;28;20034;-77
2022/06/01 02:08:19;;;;;;;;;;;;;;;;;;5033934;28;20028;-77
2022/06/01 02:13:30;;;;;;;8.93;6.82;;;;;;;;;;5031721;28;20518;-77
2022/06/01 02:15:57;;;;;;;8.15;6.40;;;;;;;;;;5031660;28;20068;-77
2022/06/01 02:18:27;;;;;;;10.02;6.70;;;;;;;;;;5031928;28;20028;-77
2022/06/01 02:20:57;;;;;;;8.48;6.50;;;;;;;;;;5031648;28;20129;-78
2022/06/01 02:38:43;;;;;;;9.50;7.22;;;;;;;;;;3800439;28;20048;-77
2022/06/01 02:44:16;;;;;;;9.35;6.95;;;;;;;;;;5029625;28;20033;-77
2022/06/01 02:46:42;;;;;;;10.15;7.28;;;;;;;;;;5011751;28;20113;-77
2022/06/01 02:49:08;;;;;;;9.23;7.28;;;;;;;;;;5020289;28;20136;-77
2022/06/01 02:51:34;;;;;;;8.60;7.05;;;;;;;;;;5030235;28;20038;-76
2022/06/01 02:54:00;;;;;;;9.15;7.35;;;;;;;;;;5031673;28;20037;-77
2022/06/01 02:56:26;;;;;;;9.40;7.70;;;;;;;;;;5031665;28;20411;-77
2022/06/01 02:58:52;;;;;;;9.07;7.53;;;;;;;;;;5032087;28;20068;-77
2022/06/01 03:01:18;;;;;;;8.43;6.97;;;;;;;;;;5032177;28;20540;-77
2022/06/01 03:03:44;;;;;;;10.27;7.80;;;;;;;;;;5031106;28;20022;-77
2022/06/01 03:06:10;;;;;;;9.57;7.25;;;;;;;;;;5036172;28;20026;-77
2022/06/01 03:08:39;;;;;;;8.27;7.13;;;;;;;;;;5033480;28;20018;-77
2022/06/01 03:11:05;;;;;;;9.20;7.60;;;;;;;;;;5034199;28;20487;-77
2022/06/01 03:13:31;;;;;;;9.40;7.75;;;;;;;;;;5037749;28;20034;-77
2022/06/01 03:15:58;;;;;;;9.05;7.18;;;;;;;;;;5036419;28;20029;-77
2022/06/01 03:18:24;;;;;;;11.13;8.23;;;;;;;;;;5034494;28;20067;-78
2022/06/01 03:20:50;;;;;;;11.55;8.75;;;;;;;;;;5036472;28;20080;-77
2022/06/01 03:23:16;;;;;;;11.30;8.32;;;;;;;;;;5036943;28;20427;-77
2022/06/01 03:25:42;;;;;;;13.70;9.05;;;;;;;;;;5035343;28;20021;-77
2022/06/01 03:28:09;;;;;;;12.25;9.10;;;;;;;;;;5035768;28;20056;-77
2022/06/01 03:30:35;;;;;;;10.75;7.82;;;;;;;;;;5037096;28;20065;-77
2022/06/01 03:33:03;;;;;;;11.55;8.65;;;;;;;;;;5035579;28;20076;-77
2022/06/01 03:35:30;;;;;;;11.30;7.72;;;;;;;;;;5035394;28;20075;-77
2022/06/01 03:37:59;;;;;;;9.25;7.68;;;;;;;;;;5035214;28;20029;-77
2022/06/01 03:40:28;;;;;;;11.10;8.40;;;;;;;;;;5032802;28;20033;-78
2022/06/01 03:42:54;;;;;;;10.10;7.68;;;;;;;;;;5032968;28;20033;-78
2022/06/01 03:48:08;;;;;;;9.30;6.63;;;;;;;;;;5035118;28;20076;-77
2022/06/01 03:50:34;;;;;;;8.98;7.13;;;;;;;;;;5035571;28;20018;-77
2022/06/01 03:53:02;;;;;;;9.57;7.00;;;;;;;;;;5033144;28;20024;-78
2022/06/01 03:55:28;;;;;;;9.27;7.10;;;;;;;;;;5034231;28;20033;-77
2022/06/01 03:57:54;;;;;;;8.18;6.40;;;;;;;;;;5033624;28;20076;-78
2022/06/01 04:00:22;;;;;;;9.02;6.60;;;;;;;;;;5034661;28;20080;-77
2022/06/01 04:02:48;;;;;;;8.93;7.43;;;;;;;;;;5031053;28;20049;-77
2022/06/01 04:05:14;;;;;;;11.05;7.65;;;;;;;;;;5014760;28;20091;-77
2022/06/01 04:07:40;;;;;;;11.07;7.88;;;;;;;;;;5043615;28;20420;-78
2022/06/01 04:10:07;;;;;;;9.68;7.53;;;;;;;;;;5045587;28;20026;-77
2022/06/01 04:12:36;;;;;;;9.70;7.70;;;;;;;;;;5043777;28;20079;-78
2022/06/01 04:15:03;;;;;;;9.90;7.32;;;;;;;;;;5044713;28;20531;-78
2022/06/01 04:17:28;;;;;;;8.48;6.82;;;;;;;;;;5035461;28;20116;-77
2022/06/01 04:19:54;;;;;;;9.80;6.93;;;;;;;;;;5033451;28;20064;-77
2022/06/01 04:22:21;;;;;;;7.88;6.25;;;;;;;;;;5035117;28;20033;-77
2022/06/01 04:24:47;;;;;;;8.48;6.82;;;;;;;;;;5032201;28;20048;-77
2022/06/01 04:27:13;;;;;;;8.60;5.82;;;;;;;;;;5033792;28;20026;-77
2022/06/01 04:29:39;;;;;;;8.43;6.03;;;;;;;;;;5033139;28;20537;-77
2022/06/01 04:32:08;;;;;;;7.70;5.85;;;;;;;;;;5033593;28;20025;-76
2022/06/01 04:34:34;;;;;;;8.63;6.15;;;;;;;;;;5033817;28;20079;-77
2022/06/01 04:37:00;;;;;;;19.85;7.53;;;;;;;;;;5033647;28;20029;-77
2022/06/01 04:39:26;;;;;;;12.23;7.50;;;;;;;;;;5032166;28;20033;-78
2022/06/01 04:41:52;;;;;;;12.43;7.05;;;;;;;;;;5029931;28;20033;-78
2022/06/01 04:44:19;;;;;;;8.55;6.13;;;;;;;;;;5033910;28;20095;-78
2022/06/01 04:46:45;;;;;;;9.70;5.40;;;;;;;;;;5031806;28;20022;-78
2022/06/01 04:49:11;;;;;;;11.52;6.60;;;;;;;;;;5033043;28;20013;-78
2022/06/01 04:51:38;;;;;;;8.30;5.93;;;;;;;;;;5033688;28;20396;-77
2022/06/01 04:54:04;;;;;;;6.90;4.43;;;;;;;;;;5032339;28;20400;-77
2022/06/01 04:56:30;;;;;;;7.68;4.57;;;;;;;;;;5032956;28;20033;-77
2022/06/01 04:58:56;;;;;;;7.40;5.60;;;;;;;;;;5034512;28;20033;-77
2022/06/01 05:01:23;;;;;;;7.05;4.97;;;;;;;;;;5033797;28;20077;-76
2022/06/01 05:03:49;;;;;;;7.13;5.65;;;;;;;;;;5034202;28;20052;-77
2022/06/01 05:06:15;;;;;;;7.60;5.30;;;;;;;;;;5033892;28;20021;-77
2022/06/01 05:08:41;;;;;;;6.57;3.60;;;;;;;;;;5034251;28;20514;-77
2022/06/01 05:11:07;;;;;;;7.05;4.15;;;;;;;;;;5032738;28;20033;-77
2022/06/01 05:13:33;;;;;;;6.07;3.78;;;;;;;;;;5033652;28;20328;-77
2022/06/01 05:16:01;;;;;;;6.03;4.47;;;;;;;;;;5034029;28;20025;-77
2022/06/01 05:18:27;;;;;;;5.75;4.53;;;;;;;;;;5033004;28;20018;-77
2022/06/01 05:20:54;;;;;;;8.15;5.13;;;;;;;;;;5034983;28;20117;-78
2022/06/01 05:23:20;;;;;;;6.93;4.85;;;;;;;;;;5034490;28;20029;-77
2022/06/01 05:25:47;;;;;;;5.32;2.90;;;;;;;;;;5033409;28;20044;-77
2022/06/01 05:28:16;;;;;;;4.72;2.65;;;;;;;;;;5033030;28;20021;-78
2022/06/01 05:30:42;;;;;;;5.03;3.00;;;;;;;;;;5032237;28;20021;-77
2022/06/01 05:33:08;;;;;;;5.78;3.20;;;;;;;;;;5036424;28;20028;-79
2022/06/01 05:35:34;;;;;;;5.38;2.90;;;;;;;;;;5036506;28;20037;-77
2022/06/01 05:38:01;;;;;;;4.80;3.10;;;;;;;;;;5038305;28;20026;-81
2022/06/01 05:40:27;;;;;;;5.25;3.22;;;;;;;;;;5048047;28;20033;-79
2022/06/01 05:42:53;;;;;;;4.95;2.80;;;;;;;;;;5052445;28;20033;-79
2022/06/01 05:45:19;;;;;;;6.65;3.30;;;;;;;;;;5037363;28;20155;-79
2022/06/01 05:47:45;;;;;;;6.55;4.30;;;;;;;;;;5034370;28;20511;-79
2022/06/01 05:50:11;;;;;;;9.13;4.70;;;;;;;;;;5035896;28;20096;-79
2022/06/01 05:52:38;;;;;;;4.80;3.40;;;;;;;;;;5035772;28;20029;-80
2022/06/01 05:55:06;;;;;;;5.05;2.83;;;;;;;;;;5039016;28;20025;-81
2022/06/01 05:57:32;;;;;;;5.15;2.80;;;;;;;;;;5036760;28;20026;-80
2022/06/01 05:59:58;;;;;;;5.10;2.90;;;;;;;;;;5033219;28;20036;-80
2022/06/01 06:02:24;;;;;;;6.05;3.42;;;;;;;;;;5041455;28;20426;-80
2022/06/01 06:04:50;;;;;;;4.93;2.70;;;;;;;;;;5038152;28;20025;-82
2022/06/01 06:07:16;;;;;;;5.45;2.75;;;;;;;;;;5040769;28;20029;-78
2022/06/01 06:09:42;;;;;;;5.13;2.70;;;;;;;;;;5043040;28;20440;-81
2022/06/01 06:12:08;;;;;;;7.38;3.00;;;;;;;;;;5042883;28;20088;-79
2022/06/01 06:14:34;;;;;;;4.43;2.78;;;;;;;;;;5041724;28;20022;-79
2022/06/01 06:17:00;;;;;;;5.63;2.58;;;;;;;;;;5039292;28;20036;-81
2022/06/01 06:19:26;;;;;;;4.05;2.58;;;;;;;;;;5037396;28;20064;-80
2022/06/01 06:21:52;;;;;;;4.75;2.47;;;;;;;;;;5038433;28;20095;-80
2022/06/01 06:24:19;;;;;;;4.10;2.53;;;;;;;;;;5039855;28;20025;-80
2022/06/01 06:26:46;;;;;;;4.85;2.70;;;;;;;;;;5043047;28;20021;-81
2022/06/01 06:29:13;;;;;;;5.57;2.88;;;;;;;;;;5038267;28;20038;-80
2022/06/01 06:31:40;;;;;;;4.65;2.85;;;;;;;;;;5043008;28;20021;-80
2022/06/01 06:34:06;;;;;;;4.93;2.72;;;;;;;;;;5044410;28;20029;-80
2022/06/01 06:36:32;;;;;;;4.18;2.78;;;;;;;;;;5040185;28;20032;-80
2022/06/01 06:38:58;;;;;;;4.72;3.17;;;;;;;;;;5037883;28;20037;-81
2022/06/01 06:41:24;;;;;;;5.75;2.80;;;;;;;;;;5037118;28;20056;-81
2022/06/01 06:43:51;;;;;;;4.25;2.80;;;;;;;;;;5038227;28;20032;-82
2022/06/01 06:46:19;;;;;;;6.10;3.05;;;;;;;;;;5033860;28;20439;-81
2022/06/01 06:48:48;;;;;;;5.22;2.88;;;;;;;;;;5038256;28;20087;-82
2022/06/01 06:51:14;;;;;;;6.63;3.40;;;;;;;;;;5039956;28;20024;-82
2022/06/01 06:53:40;;;;;;;5.03;3.20;;;;;;;;;;5035183;28;20022;-82
2022/06/01 06:56:06;;;;;;;4.50;2.83;;;;;;;;;;5034290;28;20138;-81
2022/06/01 06:58:33;;;;;;;6.00;3.22;;;;;;;;;;5033170;28;20452;-79
2022/06/01 07:00:59;;;;;;;6.63;2.90;;;;;;;;;;5036552;28;20037;-81
2022/06/01 07:03:25;;;;;;;6.10;3.28;;;;;;;;;;5036866;28;20037;-81
2022/06/01 07:06:09;;;;;;;5.35;3.13;;;;;;;;;;5037479;28;20043;-81
2022/06/01 07:08:36;;;;;;;6.13;3.50;;;;;;;;;;5037491;28;20403;-83
2022/06/01 07:11:02;;;;;;;5.45;3.35;;;;;;;;;;5034805;28;20021;-81
2022/06/01 07:13:28;;;;;;;6.00;3.70;;;;;;;;;;5034604;28;20083;-81
2022/06/01 07:16:05;;;;;;;7.95;3.90;;;;;;;;;;5036729;28;20029;-82
2022/06/01 07:18:31;;;;;;;6.10;3.60;;;;;;;;;;5035384;28;20056;-81
2022/06/01 07:20:58;;;;;;;5.10;3.50;;;;;;;;;;5033464;28;20034;-82
2022/06/01 07:23:25;;;;;;;5.40;3.33;;;;;;;;;;5033868;28;20025;-81
2022/06/01 07:25:51;;;;;;;5.40;3.33;;;;;;;;;;5022928;28;20018;-82
2022/06/01 07:28:18;;;;;;;5.20;3.40;;;;;;;;;;5014894;28;20053;-79
2022/06/01 07:30:45;;;;;;;5.85;3.55;;;;;;;;;;5030306;28;20013;-83
2022/06/01 07:33:11;;;;;;;5.13;3.20;;;;;;;;;;5034425;28;20025;-83
2022/06/01 07:35:37;;;;;;;5.45;3.35;;;;;;;;;;5035665;28;20087;-81
2022/06/01 07:43:33;;;;;;;5.72;3.58;;;;;;;;;;5039031;28;20044;-83
2022/06/01 07:45:59;;;;;;;4.68;3.28;;;;;;;;;;5034206;28;20030;-81
2022/06/01 07:48:25;;;;;;;4.88;3.35;;;;;;;;;;5033812;28;20052;-79
2022/06/01 07:50:51;;;;;;;4.82;3.40;;;;;;;;;;5034540;28;20526;-81
2022/06/01 07:53:18;;;;;;;5.07;3.22;;;;;;;;;;5041902;28;20483;-82
2022/06/01 07:55:44;;;;;;;5.50;3.53;;;;;;;;;;5041807;28;20521;-82
2022/06/01 07:58:10;;;;;;;4.72;3.15;;;;;;;;;;5041800;28;20033;-83
2022/06/01 08:00:36;;;;;;;5.00;3.42;;;;;;;;;;5041013;28;20067;-81
2022/06/01 08:03:02;;;;;;;4.43;2.95;;;;;;;;;;5040496;28;20033;-81
2022/06/01 08:05:28;;;;;;;5.32;3.38;;;;;;;;;;5038811;28;20052;-82
2022/06/01 08:07:54;;;;;;;4.80;3.33;;;;;;;;;;5039700;28;20040;-81
2022/06/01 08:10:21;;;;;;;5.03;3.45;;;;;;;;;;5043779;28;20041;-82
2022/06/01 08:15:55;;;;;;;4.68;3.40;;;;;;;;;;5039571;28;20045;-81
2022/06/01 08:18:23;;;;;;;4.85;3.38;;;;;;;;;;5034944;28;20491;-80
2022/06/01 08:20:49;;;;;;;4.90;3.20;;;;;;;;;;5029143;28;20080;-80
2022/06/01 08:23:15;;;;;;;4.85;3.03;;;;;;;;;;5033102;28;20052;-82
2022/06/01 08:25:42;;;;;;;5.05;3.20;;;;;;;;;;5035662;28;20021;-82
2022/06/01 08:28:09;;;;;;;4.90;3.10;;;;;;;;;;5038498;28;20537;-82
2022/06/01 08:30:36;;;;;;;4.80;3.47;;;;;;;;;;5040342;28;20505;-82
2022/06/01 08:33:02;;;;;;;4.78;3.20;;;;;;;;;;5041137;28;20031;-82
2022/06/01 08:35:33;;;;;;;5.65;3.10;;;;;;;;;;5039306;28;20030;-82
2022/06/01 08:37:59;;;;;;;4.95;3.00;;;;;;;;;;5035189;28;20120;-81
2022/06/01 08:40:26;;;;;;;4.25;2.80;;;;;;;;;;5034727;28;20138;-79
2022/06/01 08:42:55;;;;;;;5.63;3.08;;;;;;;;;;5034087;28;20112;-80
2022/06/01 08:45:24;;;;;;;4.85;2.95;;;;;;;;;;5032440;28;20322;-80
2022/06/01 08:47:50;;;;;;;5.22;2.75;;;;;;;;;;5016649;28;20018;-79
2022/06/01 08:50:25;;;;;;;4.95;3.22;;;;;;;;;;5018250;28;20052;-79
2022/06/01 08:52:59;;;;;;;4.50;2.60;;;;;;;;;;5036084;28;20402;-80
2022/06/01 08:55:27;;;;;;;5.65;3.10;;;;;;;;;;5408467;22;20138;-80
2022/06/01 08:58:00;;;;;;;7.65;3.13;;;;;;;;;;4997922;28;20026;-80
2022/06/01 09:00:28;;;;;;;6.40;3.03;;;;;;;;;;4997346;28;20061;-81
2022/06/01 09:03:11;;;;;;;4.90;2.90;;;;;;;;;;4995897;28;20121;-80
2022/06/01 09:05:37;;;;;;;;;;;;;;;;;;4982136;28;20026;-79
2022/06/01 09:08:15;;;;;;;5.07;2.58;;;;;;;;;;4995522;28;19906;-80
2022/06/01 09:10:44;;;;;;;7.40;2.70;;;;;;;;;;5010992;28;20030;-81
2022/06/01 09:13:15;;;;;;;4.93;2.55;;;;;;;;;;4997176;28;20022;-82
2022/06/01 09:16:08;;;;;;;4.57;2.60;;;;;;;;;;4998548;28;20038;-82
2022/06/01 09:18:38;;;;;;;4.93;2.65;;;;;;;;;;4999750;28;20046;-80
2022/06/01 09:23:49;;;;;;;5.18;2.83;;;;;;;;;;4999430;28;20455;-82
2022/06/01 09:26:23;;;;;;;4.70;2.80;;;;;;;;;;5000023;28;20528;-81
2022/06/01 09:28:53;;;;;;;4.20;2.72;;;;;;;;;;5002911;28;20110;-81
2022/06/01 09:31:20;;;;;;;6.07;3.00;;;;;;;;;;5001938;28;20392;-82
2022/06/01 09:33:46;;;;;;;4.40;2.88;;;;;;;;;;4999602;28;20046;-82
2022/06/01 09:36:12;;;;;;;4.35;2.80;;;;;;;;;;5002177;28;20014;-82
2022/06/01 09:38:41;;;;;;;4.75;3.10;;;;;;;;;;5000609;28;20023;-82
2022/06/01 09:41:09;;;;;;;4.82;2.78;;;;;;;;;;5000899;28;20026;-81
2022/06/01 09:43:35;;;;;;;4.38;3.35;;;;;;;;;;4999806;28;20026;-81
2022/06/01 09:46:01;;;;;;;4.90;2.80;;;;;;;;;;4999716;28;20411;-82
2022/06/01 09:48:35;;;;;;;4.82;2.80;;;;;;;;;;4999606;28;20277;-82
2022/06/01 09:51:07;;;;;;;4.32;2.40;;;;;;;;;;4998821;28;20029;-82
2022/06/01 09:53:35;;;;;;;3.90;2.38;;;;;;;;;;4999986;28;20022;-82
2022/06/01 09:56:03;;;;;;;4.45;2.50;;;;;;;;;;4999739;28;20117;-81
2022/06/01 10:06:50;;;;;;;5.63;2.58;;;;;;;;;;4991233;28;20090;-81
2022/06/01 10:09:20;;;;;;;4.38;2.78;;;;;;;;;;4994853;28;20029;-80
2022/06/01 10:11:47;;;;;;;5.57;3.40;;;;;;;;;;4999404;28;20034;-80
2022/06/01 10:14:24;;;;;;;6.30;2.95;;;;;;;;;;4998362;28;20453;-81
2022/06/01 10:16:57;;;;;;;6.10;2.70;;;;;;;;;;4999229;28;20026;-81
2022/06/01 10:19:30;;;;;;;4.65;2.63;;;;;;;;;;4999001;28;20034;-80
2022/06/01 10:21:58;;;;;;;5.13;2.47;;;;;;;;;;4990212;28;20043;-81
2022/06/01 10:24:27;;;;;;;4.95;2.72;;;;;;;;;;4998589;28;20026;-79
2022/06/01 10:26:55;;;;;;;4.03;2.35;;;;;;;;;;4999941;28;20026;-81
2022/06/01 10:29:26;;;;;;;5.28;2.80;;;;;;;;;;4994510;28;20026;-81
2022/06/01 10:32:03;;;;;;;4.30;2.40;;;;;;;;;;4985974;28;20033;-81
2022/06/01 10:34:32;;;;;;;4.57;2.90;;;;;;;;;;4998883;28;20022;-82
2022/06/01 10:37:04;;;;;;;5.68;2.75;;;;;;;;;;4995926;28;20031;-86
2022/06/01 10:39:35;;;;;;;5.00;2.38;;;;;;;;;;4998113;28;20018;-81
2022/06/01 10:42:10;;;;;;;4.38;2.58;;;;;;;;;;4999845;28;20026;-82
2022/06/01 10:44:56;;;;;;;5.75;2.58;;;;;;;;;;4996438;28;20065;-81
2022/06/01 10:47:27;;;;;;;4.93;2.58;;;;;;;;;;4989029;28;20048;-81
2022/06/01 10:49:56;;;;;;;4.03;2.63;;;;;;;;;;4999066;28;20030;-82
2022/06/01 10:52:29;;;;;;;4.43;2.60;;;;;;;;;;4998175;28;20027;-80
2022/06/01 10:55:03;;;;;;;5.00;2.65;;;;;;;;;;4998460;28;20085;-81
2022/06/01 10:57:29;;;;;;;4.63;2.50;;;;;;;;;;4998959;28;20600;-82
2022/06/01 10:59:55;;;;;;;5.32;2.70;;;;;;;;;;4998463;28;20050;-82
2022/06/01 11:02:40;;;;;;;3.88;2.15;;;;;;;;;;4998153;28;20057;-82
2022/06/01 11:05:33;;;;;;;3.88;2.25;;;;;;;;;;4999506;28;20101;-83
2022/06/01 11:08:10;;;;;;;4.82;2.20;;;;;;;;;;4998196;28;20027;-83
2022/06/01 11:10:58;;;;;;;4.55;2.10;;;;;;;;;;4999314;28;20044;-84
2022/06/01 11:13:25;;;;;;;5.20;2.05;;;;;;;;;;4997189;28;20492;-82
2022/06/01 11:16:10;;;;;;;4.47;2.38;;;;;;;;;;4998720;28;20084;-80
2022/06/01 11:18:52;;;;;;;5.53;2.10;;;;;;;;;;4998072;28;20120;-81
2022/06/01 11:21:24;;;;;;;3.97;2.13;;;;;;;;;;4979373;28;20493;-84
2022/06/01 11:24:09;;;;;;;4.93;2.30;;;;;;;;;;4980235;28;20031;-83
2022/06/01 11:26:53;;;;;;;5.72;2.20;;;;;;;;;;4996245;28;20042;-83
2022/06/01 11:29:19;;;;;;;3.95;2.30;;;;;;;;;;4997516;28;20112;-83
2022/06/01 11:31:49;;;;;;;4.38;2.15;;;;;;;;;;5002892;28;20519;-82
2022/06/01 11:34:36;;;;;;;4.03;2.03;;;;;;;;;;5002132;28;20046;-83
2022/06/01 11:37:08;;;;;;;4.20;2.10;;;;;;;;;;5000180;28;20092;-85
2022/06/01 11:39:37;;;;;;;5.22;2.20;;;;;;;;;;5001363;28;20036;-82
2022/06/01 11:42:29;;;;;;;4.00;1.90;;;;;;;;;;5001698;28;20034;-85
2022/06/01 11:45:15;;;;;;;4.97;2.10;;;;;;;;;;5001671;28;20038;-84
2022/06/01 11:47:46;;;;;;;5.75;2.08;;;;;;;;;;4987806;28;20031;-83
2022/06/01 11:50:24;;;;;;;4.75;2.00;;;;;;;;;;4993805;28;20023;-86
2022/06/01 11:52:56;;;;;;;4.15;1.80;;;;;;;;;;4995369;28;20034;-86
2022/06/01 11:55:22;;;;;;;5.40;1.70;;;;;;;;;;4995081;28;20054;-86
2022/06/01 11:57:53;;;;;;;5.07;1.90;;;;;;;;;;4977223;28;20130;-86
2022/06/01 12:00:31;;;;;;;4.40;1.70;;;;;;;;;;4977014;28;20110;-85
2022/06/01 12:03:01;;;;;;;6.68;2.13;;;;;;;;;;4997088;28;20031;-85
2022/06/01 12:05:27;;;;;;;3.55;1.75;;;;;;;;;;4996251;28;20023;-85
2022/06/01 12:08:16;;;;;;;4.25;1.70;;;;;;;;;;4997228;28;20026;-85
2022/06/01 12:10:51;;;;;;;3.03;1.45;;;;;;;;;;4991210;28;20021;-84
2022/06/01 12:13:28;;;;;;;4.38;1.67;;;;;;;;;;5014398;28;20030;-84
2022/06/01 12:16:13;;;;;;;3.67;1.63;;;;;;;;;;5012852;28;20026;-84
2022/06/01 12:18:39;;;;;;;3.42;1.50;;;;;;;;;;5002407;28;20023;-84
2022/06/01 12:21:25;;;;;;;3.70;1.70;;;;;;;;;;4996271;28;20033;-85
2022/06/01 12:29:34;;;;;;;4.03;1.60;;;;;;;;;;4986381;28;20507;-84
2022/06/01 12:32:00;;;;;;;3.58;1.52;;;;;;;;;;4996414;28;20401;-84
2022/06/01 12:34:30;;;;;;;2.92;1.48;;;;;;;;;;4996330;28;20030;-85
2022/06/01 12:36:59;;;;;;;3.35;1.50;;;;;;;;;;4994391;28;20033;-84
2022/06/01 12:39:40;;;;;;;2.90;1.40;;;;;;;;;;5012123;28;20447;-85
2022/06/01 12:42:28;;;;;;;4.47;1.45;;;;;;;;;;4998538;28;20098;-84
2022/06/01 12:44:55;;;;;;;3.33;1.63;;;;;;;;;;4996588;28;20019;-84
2022/06/01 12:47:31;;;;;;;6.32;1.80;;;;;;;;;;4997015;28;20037;-85
2022/06/01 12:50:05;;;;;;;4.13;1.70;;;;;;;;;;4996586;28;20023;-84
2022/06/01 12:52:31;;;;;;;3.97;1.60;;;;;;;;;;4994582;28;20177;-85
2022/06/01 12:55:00;;;;;;;4.70;1.85;;;;;;;;;;4992041;28;20173;-85
2022/06/01 12:57:32;;;;;;;3.95;1.65;;;;;;;;;;4995975;28;20031;-84
2022/06/01 13:00:00;;;;;;;4.50;2.03;;;;;;;;;;4994509;28;20100;-85
2022/06/01 13:02:28;;;;;;;5.25;1.77;;;;;;;;;;4995412;28;20058;-85
2022/06/01 13:04:55;;;;;;;3.75;1.70;;;;;;;;;;4994750;28;20030;-85
2022/06/01 13:07:23;;;;;;;4.32;2.05;;;;;;;;;;4993736;28;20029;-84
2022/06/01 13:09:57;;;;;;;4.38;1.70;;;;;;;;;;4991444;28;20027;-84
2022/06/01 13:12:28;;;;;;;5.25;2.15;;;;;;;;;;4987735;28;20032;-85
2022/06/01 13:14:54;;;;;;;3.42;1.60;;;;;;;;;;4994741;28;20022;-84
2022/06/01 13:17:20;;;;;;;3.22;1.73;;;;;;;;;;4995370;28;20085;-84
2022/06/01 13:20:14;;;;;;;3.75;2.10;;;;;;;;;;4994990;28;20031;-84
2022/06/01 13:22:42;;;;;;;5.28;2.00;;;;;;;;;;4993391;28;20125;-85
2022/06/01 13:25:13;;;;;;;4.38;1.90;;;;;;;;;;5014496;28;20046;-85
2022/06/01 13:27:40;;;;;;;3.70;2.25;;;;;;;;;;4996785;28;20436;-85
2022/06/01 13:30:07;;;;;;;3.85;1.90;;;;;;;;;;4994752;28;20071;-85
2022/06/01 13:32:35;;;;;;;5.90;2.40;;;;;;;;;;4996312;28;20053;-84
2022/06/01 13:35:03;;;;;;;3.40;1.90;;;;;;;;;;4993571;28;20026;-82
2022/06/01 13:37:30;;;;;;;3.95;1.85;;;;;;;;;;4993825;28;20531;-85
2022/06/01 13:40:04;;;;;;;4.55;2.17;;;;;;;;;;5010199;28;20030;-85
2022/06/01 13:42:34;;;;;;;4.57;2.13;;;;;;;;;;4995465;28;20033;-85
2022/06/01 13:45:06;;;;;;;4.05;1.95;;;;;;;;;;5009456;28;20023;-85
2022/06/01 13:47:37;;;;;;;4.75;2.47;;;;;;;;;;4995409;28;20014;-85
2022/06/01 13:50:09;;;;;;;4.13;2.03;;;;;;;;;;4995172;28;20031;-84
2022/06/01 13:52:35;;;;;;;4.28;2.40;;;;;;;;;;4991638;28;20060;-84
2022/06/01 13:55:08;;;;;;;3.70;2.10;;;;;;;;;;4996091;28;20149;-85
2022/06/01 13:57:45;;;;;;;4.82;1.98;;;;;;;;;;4996948;28;20030;-84
2022/06/01 14:00:18;;;;;;;4.32;2.10;;;;;;;;;;4993167;28;20088;-84
2022/06/01 14:02:56;;;;;;;4.28;2.17;;;;;;;;;;4995626;28;20065;-85
2022/06/01 14:05:36;;;;;;;4.78;1.95;;;;;;;;;;4994797;28;20062;-85
2022/06/01 14:08:02;;;;;;;4.15;1.90;;;;;;;;;;4994455;28;20121;-84
2022/06/01 14:10:48;;;;;;;4.57;2.40;;;;;;;;;;4995190;28;20057;-85
2022/06/01 14:13:15;;;;;;;3.65;1.90;;;;;;;;;;4995535;28;20037;-84
2022/06/01 14:15:41;;;;;;;4.30;1.95;;;;;;;;;;4995034;28;20058;-84
2022/06/01 14:18:09;;;;;;;7.65;2.15;;;;;;;;;;4988898;28;20018;-84
2022/06/01 14:20:35;;;;;;;4.07;2.28;;;;;;;;;;4996475;28;20094;-85
2022/06/01 14:23:01;;;;;;;6.38;2.30;;;;;;;;;;4995543;28;20041;-85
2022/06/01 14:28:31;;;;;;;4.05;2.00;;;;;;;;;;4998857;28;20030;-85
2022/06/01 14:30:58;;;;;;;5.05;2.15;;;;;;;;;;5015057;28;20101;-84
2022/06/01 14:33:25;;;;;;;4.10;2.20;;;;;;;;;;4997097;28;20026;-85
2022/06/01 14:35:52;;;;;;;4.00;2.10;;;;;;;;;;4997226;28;20060;-84
2022/06/01 14:38:18;;;;;;;3.78;1.90;;;;;;;;;;4996704;28;20033;-86
2022/06/01 14:40:44;;;;;;;4.20;2.40;;;;;;;;;;4984951;28;20034;-85
2022/06/01 14:43:10;;;;;;;4.70;2.50;;;;;;;;;;4993392;28;20034;-86
2022/06/01 14:45:36;;;;;;;6.80;2.10;;;;;;;;;;5011449;28;20026;-85
2022/06/01 14:48:03;;;;;;;3.90;1.98;;;;;;;;;;4997651;28;20026;-85
2022/06/01 14:50:29;;;;;;;4.22;2.42;;;;;;;;;;4995204;28;20018;-85
2022/06/01 14:52:55;;;;;;;3.80;2.10;;;;;;;;;;4996467;28;20093;-85
2022/06/01 14:55:21;;;;;;;4.75;2.08;;;;;;;;;;5011086;28;20046;-86
2022/06/01 14:57:47;;;;;;;4.53;2.30;;;;;;;;;;4997567;28;20027;-85
2022/06/01 15:00:14;;;;;;;3.88;2.28;;;;;;;;;;4993606;28;20030;-85
2022/06/01 15:02:43;;;;;;;4.00;2.10;;;;;;;;;;5012664;28;20100;-86
2022/06/01 15:05:10;;;;;;;4.60;2.33;;;;;;;;;;4994675;28;20022;-86
2022/06/01 15:07:36;;;;;;;5.00;2.10;;;;;;;;;;5006243;28;20100;-85
2022/06/01 15:10:03;;;;;;;3.83;2.05;;;;;;;;;;4993674;28;20027;-86
2022/06/01 15:12:29;;;;;;;4.28;2.10;;;;;;;;;;4978297;28;20050;-85
2022/06/01 15:14:54;;;;;;;4.28;2.42;;;;;;;;;;4980274;28;20162;-85
2022/06/01 15:17:22;;;;;;;4.20;2.10;;;;;;;;;;4994615;28;20018;-84
2022/06/01 15:19:49;;;;;;;4.68;2.25;;;;;;;;;;4992499;28;20038;-85
2022/06/01 15:22:15;;;;;;;3.88;2.33;;;;;;;;;;4995441;28;20115;-86
2022/06/01 15:24:41;;;;;;;4.50;2.22;;;;;;;;;;5000238;28;20077;-85
2022/06/01 15:27:09;;;;;;;4.25;2.17;;;;;;;;;;5014552;28;20436;-86
2022/06/01 15:40:35;;;;;;;4.10;2.60;;;;;;;;;;5000879;28;20042;-86
2022/06/01 15:43:02;;;;;;;4.35;2.15;;;;;;;;;;4997228;28;20034;-85
2022/06/01 15:45:31;;;;;;;3.70;2.03;;;;;;;;;;5018994;28;20551;-85
2022/06/01 15:47:59;;;;;;;4.18;2.00;;;;;;;;;;5002688;28;20034;-83
2022/06/01 15:50:25;;;;;;;4.43;2.25;;;;;;;;;;5003373;28;20057;-84
2022/06/01 15:52:51;;;;;;;4.80;2.38;;;;;;;;;;5000635;28;20097;-85
2022/06/01 15:55:18;;;;;;;4.53;2.20;;;;;;;;;;4998920;28;20042;-85
2022/06/01 15:57:44;;;;;;;4.63;2.17;;;;;;;;;;4997930;28;20540;-86
2022/06/01 16:00:10;;;;;;;3.85;2.28;;;;;;;;;;4999872;28;20081;-85
2022/06/01 16:02:36;;;;;;;4.78;2.15;;;;;;;;;;5002785;28;20117;-85